Thunder radar more information blitzortung!


Radar de pluja more information rain snow radar


Visita la nostra xarxa de llocs de meteo:

Template documentation
and downloads

And another site



No particular awareness of the weather is required.    There are no Weather-warnings

Pagina Historial Weather Underground text

Diari Resum January 25, 2016 Unitats:  Mètric    Imperial   Tant
« Previous Dia
SegĂźent Dia »
Diari Setmana Mensual Anual Personalitzada
  Maxima: Minima: Media:
Temperatura: -17.8 °C -12.3 °C -10.7 °C
Punt de rosada: -17.8 °C -13.9 °C -12.9 °C
Humitat: Humidity % 68 % 76 %
Wind Speed: 0 km/h 0 km/h 8.5 km/h
RĂ fegues de vent: 0 km/h - -
Vent:- - WSW
Pression baro: 0 hPa 34899.5 hPa -
Precipitacions: 0 mm    
Historical Graphs
 
 
Dades de taula per January 25, 2016
Temps Temperatura Punt de rosada Pression baro Vent Wind Speed RĂ fegues de vent Humitat Rainfall Rate (Hourly)
-17.8 °C -17.8 °C 0 hPa Calm     Humidity % 0 mm
11:03 -11.3 °C -12.7 °C 35001.1 hPa Calm     85 % 0 mm
11:08 -11.3 °C -12.6 °C 35001.1 hPa NE 3.7 km/h 3.7 km/h 85 % 0 mm
11:18 -11.2 °C -12.6 °C 35001.1 hPa Calm     85 % 0 mm
11:23 -11.1 °C -12.4 °C 35001.1 hPa West 3.7 km/h 3.7 km/h 85 % 0 mm
11:28 -11.1 °C -12.3 °C 35001.1 hPa Calm     86 % 0 mm
11:33 -11 °C -12.3 °C 35001.1 hPa SSW 3.1 km/h 3.1 km/h 86 % 0 mm
11:38 -10.9 °C -12.2 °C 34967.2 hPa WSW 6 km/h 6 km/h 86 % 0 mm
11:43 -10.9 °C -12.2 °C 34967.2 hPa SW 3.1 km/h 3.7 km/h 86 % 0 mm
11:48 -10.8 °C -12.1 °C 34967.2 hPa SSW 6.3 km/h 6.3 km/h 86 % 0 mm
11:58 -10.7 °C -12.1 °C 35001.1 hPa WSW 11.9 km/h 11.9 km/h 84 % 0 mm
12:03 -10.7 °C -12.2 °C 35001.1 hPa WSW 17.9 km/h 17.9 km/h 83 % 0 mm
12:08 -10.6 °C -12.4 °C 35001.1 hPa WSW 15 km/h 15 km/h 81 % 0 mm
12:13 -10.6 °C -12.3 °C 35001.1 hPa WSW 11.9 km/h 11.9 km/h 81 % 0 mm
12:18 -10.5 °C -12.4 °C 35001.1 hPa SSW 20.9 km/h 20.9 km/h 80 % 0 mm
12:23 -10.5 °C -12.4 °C 34967.2 hPa SW 11.9 km/h 12.7 km/h 79 % 0 mm
12:28 -10.5 °C -12.4 °C 34967.2 hPa WSW 15 km/h 15 km/h 79 % 0 mm
12:38 -10.4 °C -12.4 °C 34967.2 hPa South 11.1 km/h 11.1 km/h 79 % 0 mm
12:43 -10.4 °C -12.4 °C 34967.2 hPa WSW 15 km/h 15 km/h 79 % 0 mm
12:48 -10.4 °C -12.4 °C 34967.2 hPa West 11.9 km/h 11.9 km/h 79 % 0 mm
12:53 -10.3 °C -12.3 °C 34967.2 hPa SW 11.9 km/h 11.9 km/h 79 % 0 mm
12:58 -10.3 °C -12.3 °C 34967.2 hPa WSW 9 km/h 9 km/h 79 % 0 mm
13:03 -10.2 °C -12.2 °C 34967.2 hPa WSW 7.6 km/h 8 km/h 79 % 0 mm
13:08 -10.2 °C -12.3 °C 34946.9 hPa WSW 11.9 km/h 11.9 km/h 78 % 0 mm
13:13 -10.2 °C -12.3 °C 34946.9 hPa WNW 9.8 km/h 9.8 km/h 78 % 0 mm
13:18 -10.2 °C -12.3 °C 34946.9 hPa SW 11.9 km/h 11.9 km/h 78 % 0 mm
13:28 -10.2 °C -12.3 °C 34946.9 hPa SW 15 km/h 15 km/h 78 % 0 mm
13:43 -10.1 °C -12.3 °C 34946.9 hPa WSW 6.3 km/h 6.3 km/h 77 % 0 mm
13:48 -10.1 °C -12.3 °C 34946.9 hPa WSW 11.9 km/h 11.9 km/h 77 % 0 mm
13:53 -10 °C -12.2 °C 34899.5 hPa WSW 9 km/h 9 km/h 77 % 0 mm
13:58 -10 °C -12.2 °C 34899.5 hPa WSW 9 km/h 9 km/h 77 % 0 mm
14:03 -10 °C -12.2 °C 34899.5 hPa SW 9 km/h 9 km/h 77 % 0 mm
14:08 -10 °C -12.2 °C 34946.9 hPa SW 14 km/h 14 km/h 77 % 0 mm
14:13 -10 °C -12.2 °C 34946.9 hPa SW 6 km/h 6.8 km/h 77 % 0 mm
14:18 -10 °C -12.3 °C 34946.9 hPa West 15 km/h 15 km/h 76 % 0 mm
14:23 -9.9 °C -12.3 °C 34946.9 hPa SW 15 km/h 15 km/h 76 % 0 mm
14:28 -9.9 °C -12.2 °C 34946.9 hPa West 11.9 km/h 11.9 km/h 76 % 0 mm
14:33 -9.8 °C -12.2 °C 34946.9 hPa WSW 15 km/h 15 km/h 76 % 0 mm
14:38 -9.8 °C -12.3 °C 34946.9 hPa WSW 15 km/h 15 km/h 75 % 0 mm
14:43 -9.8 °C -12.2 °C 34946.9 hPa SW 11.9 km/h 11.9 km/h 75 % 0 mm
14:48 -9.7 °C -12.2 °C 34946.9 hPa SW 9.8 km/h 9.8 km/h 75 % 0 mm
14:53 -9.7 °C -12.2 °C 34946.9 hPa WSW 15 km/h 15 km/h 75 % 0 mm
14:58 -9.7 °C -12.2 °C 34946.9 hPa SW 11.1 km/h 11.1 km/h 74 % 0 mm
15:03 -9.7 °C -12.2 °C 34946.9 hPa SW 15 km/h 15 km/h 74 % 0 mm
15:08 -9.7 °C -12.2 °C 34946.9 hPa SW 17.9 km/h 17.9 km/h 74 % 0 mm
15:13 -9.6 °C -12.2 °C 34946.9 hPa SW 9 km/h 9 km/h 74 % 0 mm
15:18 -9.6 °C -12.1 °C 34946.9 hPa WSW 15 km/h 15 km/h 74 % 0 mm
15:23 -9.4 °C -12.1 °C 34946.9 hPa West 9 km/h 9 km/h 73 % 0 mm
15:28 -9.4 °C -12.1 °C 34946.9 hPa SW 11.9 km/h 11.9 km/h 73 % 0 mm
15:33 -9.4 °C -12.2 °C 34946.9 hPa SW 20.9 km/h 20.9 km/h 72 % 0 mm
15:38 -9.3 °C -12.1 °C 34946.9 hPa WSW 15 km/h 15 km/h 72 % 0 mm
15:48 -9.3 °C -12.3 °C 34946.9 hPa SW 20.9 km/h 20.9 km/h 70 % 0 mm
15:53 -9.2 °C -12.1 °C 34946.9 hPa SW 11.9 km/h 11.9 km/h 71 % 0 mm
15:58 -8.9 °C -12 °C 34946.9 hPa SW 20.9 km/h 20.9 km/h 70 % 0 mm
16:03 -8.9 °C -12.1 °C 34946.9 hPa WSW 15.6 km/h 15.6 km/h 69 % 0 mm
16:08 -9 °C -12.3 °C 34946.9 hPa SW 23.8 km/h 23.8 km/h 68 % 0 mm
16:13 -9.1 °C -12.3 °C 34946.9 hPa SW 23.8 km/h 23.8 km/h 68 % 0 mm
16:18 -9.1 °C -12.3 °C 34946.9 hPa SW 15 km/h 15 km/h 68 % 0 mm
16:23 -9.1 °C -12.3 °C 34899.5 hPa WSW 15 km/h 15 km/h 68 % 0 mm
16:28 -9.1 °C -12.3 °C 34899.5 hPa WSW 15 km/h 15 km/h 68 % 0 mm
16:33 -9.1 °C -12.4 °C 34899.5 hPa SSW 15 km/h 15 km/h 68 % 0 mm
16:38 -9.2 °C -12.4 °C 34899.5 hPa WSW 23.8 km/h 23.8 km/h 68 % 0 mm
16:43 -9.2 °C -12.5 °C 34899.5 hPa SW 17.9 km/h 17.9 km/h 68 % 0 mm
16:48 -9.3 °C -12.4 °C 34899.5 hPa SW 15 km/h 15 km/h 69 % 0 mm
16:53 -9.2 °C -12.3 °C 34946.9 hPa SW 11.9 km/h 11.9 km/h 69 % 0 mm
16:58 -9.3 °C -12.4 °C 34946.9 hPa SW 17.9 km/h 17.9 km/h 69 % 0 mm
17:03 -9.3 °C -12.4 °C 34946.9 hPa SSW 17.9 km/h 17.9 km/h 69 % 0 mm
17:08 -9.4 °C -12.4 °C 34946.9 hPa SW 15 km/h 15 km/h 70 % 0 mm
17:13 -9.4 °C -12.4 °C 34946.9 hPa WSW 15 km/h 15 km/h 70 % 0 mm
17:18 -9.5 °C -12.5 °C 34946.9 hPa SSW 15 km/h 15 km/h 70 % 0 mm
17:23 -9.6 °C -12.6 °C 34946.9 hPa WSW 17.9 km/h 17.9 km/h 70 % 0 mm
17:28 -9.6 °C -12.5 °C 34946.9 hPa SW 9 km/h 9.3 km/h 71 % 0 mm
17:33 -9.7 °C -12.6 °C 34946.9 hPa WSW 15 km/h 15 km/h 71 % 0 mm
17:38 -9.8 °C -12.7 °C 34946.9 hPa SW 11.9 km/h 11.9 km/h 71 % 0 mm
17:43 -9.9 °C -12.7 °C 34946.9 hPa SSW 20.9 km/h 20.9 km/h 72 % 0 mm
17:48 -10.1 °C -12.8 °C 34946.9 hPa SSW 9 km/h 9 km/h 72 % 0 mm
17:53 -10.1 °C -12.9 °C 34946.9 hPa WSW 11.9 km/h 11.9 km/h 72 % 0 mm
17:58 -10.2 °C -12.8 °C 34946.9 hPa SW 9 km/h 9 km/h 73 % 0 mm
18:03 -10.2 °C -12.9 °C 34946.9 hPa SW 9 km/h 9 km/h 73 % 0 mm
18:08 -10.3 °C -12.9 °C 34899.5 hPa SW 9 km/h 9 km/h 73 % 0 mm
18:09 -10.3 °C -12.9 °C 34899.5 hPa WSW 9 km/h 9 km/h 73 % 0 mm
18:10 -10.3 °C -12.9 °C 34899.5 hPa SW 9 km/h 9 km/h 73 % 0 mm
18:11 -10.4 °C -13 °C 34899.5 hPa WSW 6 km/h 6.3 km/h 73 % 0 mm
18:12 -10.4 °C -13 °C 34899.5 hPa WSW 6.8 km/h 6.8 km/h 73 % 0 mm
18:22 -10.5 °C -13 °C 34946.9 hPa WSW 9 km/h 9 km/h 74 % 0 mm
18:27 -10.6 °C -13.1 °C 34946.9 hPa SW 11.9 km/h 11.9 km/h 74 % 0 mm
18:32 -10.6 °C -13.1 °C 34946.9 hPa WSW 9 km/h 9 km/h 74 % 0 mm
18:42 -10.7 °C -13.1 °C 34946.9 hPa West 9 km/h 9 km/h 75 % 0 mm
18:47 -10.8 °C -13.2 °C 34946.9 hPa SW 11.9 km/h 11.9 km/h 75 % 0 mm
18:52 -10.8 °C -13.2 °C 34946.9 hPa WSW 11.9 km/h 11.9 km/h 75 % 0 mm
18:57 -10.9 °C -13.3 °C 34946.9 hPa SW 9 km/h 9 km/h 75 % 0 mm
19:02 -11 °C -13.4 °C 34946.9 hPa SW 6 km/h 6 km/h 75 % 0 mm
19:07 -11 °C -13.3 °C 34899.5 hPa WNW 8.5 km/h 8.5 km/h 76 % 0 mm
19:12 -11 °C -13.3 °C 34899.5 hPa SSW 12.7 km/h 12.7 km/h 76 % 0 mm
19:17 -11.1 °C -13.3 °C 34899.5 hPa WSW 9 km/h 9 km/h 76 % 0 mm
19:22 -11.1 °C -13.4 °C 34946.9 hPa WSW 11.9 km/h   76 % 0 mm
19:27 -11.1 °C -13.4 °C 34946.9 hPa West 9 km/h 9 km/h 76 % 0 mm
19:32 -11.2 °C -13.3 °C 34946.9 hPa Calm     77 % 0 mm
19:37 -11.2 °C -13.4 °C 34946.9 hPa NNW 6 km/h   77 % 0 mm
19:42 -11.2 °C -13.4 °C 34946.9 hPa West 2.3 km/h   77 % 0 mm
19:47 -11.3 °C -13.4 °C 34946.9 hPa WNW 3.1 km/h 3.1 km/h 77 % 0 mm
19:52 -11.3 °C -13.4 °C 34967.2 hPa North 3.1 km/h 3.1 km/h 78 % 0 mm
19:57 -11.3 °C -13.4 °C 34967.2 hPa NNW 3.1 km/h   78 % 0 mm
20:02 -11.4 °C -13.4 °C 34967.2 hPa Calm     78 % 0 mm
20:07 -11.4 °C -13.5 °C 34967.2 hPa WSW 5.1 km/h 5.1 km/h 78 % 0 mm
20:12 -11.5 °C -13.6 °C 34967.2 hPa WSW 3.1 km/h   78 % 0 mm
20:17 -11.5 °C -13.6 °C 34967.2 hPa WSW 3.1 km/h   78 % 0 mm
20:22 -11.5 °C -13.6 °C 34967.2 hPa WSW 6 km/h 6 km/h 78 % 0 mm
20:27 -11.5 °C -13.6 °C 34967.2 hPa WSW 6 km/h 6 km/h 78 % 0 mm
20:37 -11.6 °C -13.5 °C 34967.2 hPa WSW 6 km/h 6 km/h 79 % 0 mm
20:42 -11.6 °C -13.6 °C 34967.2 hPa WSW 3.1 km/h 3.1 km/h 79 % 0 mm
20:52 -11.7 °C -13.6 °C 34967.2 hPa Calm     79 % 0 mm
20:57 -11.7 °C -13.7 °C 34967.2 hPa Calm     79 % 0 mm
21:02 -11.8 °C -13.6 °C 34967.2 hPa Calm     80 % 0 mm
21:07 -11.8 °C -13.7 °C 35001.1 hPa Calm     80 % 0 mm
21:12 -11.8 °C -13.7 °C 35001.1 hPa WNW 3.1 km/h   80 % 0 mm
21:17 -11.9 °C -13.7 °C 35001.1 hPa Calm     80 % 0 mm
21:22 -11.9 °C -13.7 °C 35001.1 hPa NW 3.7 km/h 3.7 km/h 80 % 0 mm
21:27 -11.9 °C -13.7 °C 35001.1 hPa NW 3.1 km/h   80 % 0 mm
21:32 -11.9 °C -13.7 °C 35001.1 hPa Calm     81 % 0 mm
21:37 -12 °C -13.7 °C 35001.1 hPa Calm     81 % 0 mm
21:42 -12 °C -13.7 °C 35001.1 hPa Calm     81 % 0 mm
21:47 -12.1 °C -13.8 °C 35001.1 hPa Calm     81 % 0 mm
21:52 -12.1 °C -13.8 °C 35001.1 hPa Calm     81 % 0 mm
21:53 -12.1 °C -13.8 °C 35001.1 hPa Calm     81 % 0 mm
21:54 -12.1 °C -13.8 °C 35001.1 hPa Calm     81 % 0 mm
21:55 -12.1 °C -13.8 °C 35001.1 hPa Calm     81 % 0 mm
21:56 -12.1 °C -13.8 °C 35001.1 hPa Calm     81 % 0 mm
22:01 -12.1 °C -13.7 °C 35001.1 hPa Calm     82 % 0 mm
22:06 -12.1 °C -13.7 °C 35001.1 hPa Calm     82 % 0 mm
22:11 -12.1 °C -13.7 °C 35001.1 hPa Calm     82 % 0 mm
22:16 -12.1 °C -13.7 °C 35001.1 hPa Calm     82 % 0 mm
22:21 -12.1 °C -13.7 °C 35001.1 hPa Calm     82 % 0 mm
22:26 -12.1 °C -13.6 °C 35001.1 hPa Calm     83 % 0 mm
22:31 -12.1 °C -13.6 °C 35001.1 hPa Calm     83 % 0 mm
22:36 -12.1 °C -13.6 °C 35001.1 hPa Calm     83 % 0 mm
22:41 -12.1 °C -13.6 °C 35001.1 hPa Calm     83 % 0 mm
22:46 -12.1 °C -13.7 °C 35001.1 hPa Calm     82 % 0 mm
22:51 -12.1 °C -13.6 °C 35001.1 hPa Calm     83 % 0 mm
22:56 -12.1 °C -13.6 °C 35001.1 hPa Calm     83 % 0 mm
23:01 -12.1 °C -13.6 °C 35001.1 hPa Calm     83 % 0 mm
23:06 -12.1 °C -13.7 °C 34967.2 hPa Calm     83 % 0 mm
23:11 -12.3 °C -13.9 °C 34967.2 hPa WSW 6 km/h 6 km/h 82 % 0 mm
23:16 -12.3 °C -13.9 °C 34967.2 hPa WSW 6 km/h 6 km/h 82 % 0 mm
23:21 -12.2 °C -13.8 °C 35001.1 hPa SW 3.1 km/h   82 % 0 mm
Meteo Sesrovires
Elogis d' Weather Underground - 2 mb

Guio original per  Jim McMurry - jmcmurry@mwt.net Adaptat per a la plantilla per  Wim van der Kuil - Leuven-Template.eu

Trobareu la nostra informacio del temps tambe a:

Weather Underground

AWEKAS